createdAt,value
2018-06-14T00:05:02.732Z,7.87
2018-06-14T00:10:06.514Z,8.03
2018-06-14T00:15:10.934Z,7.72
2018-06-14T00:20:14.700Z,6.50
2018-06-14T00:25:18.486Z,6.60
2018-06-14T00:30:22.284Z,6.93
2018-06-14T00:35:26.289Z,6.97
2018-06-14T00:40:30.075Z,7.03
2018-06-14T00:45:33.855Z,7.77
2018-06-14T00:50:37.922Z,7.67
2018-06-14T00:55:41.728Z,8.67
2018-06-14T01:00:45.531Z,8.10
2018-06-14T01:05:49.606Z,7.77
2018-06-14T01:10:53.435Z,7.93
2018-06-14T01:15:57.502Z,7.73
2018-06-14T01:21:01.319Z,9.43
2018-06-14T01:26:05.196Z,7.03
2018-06-14T01:31:08.995Z,8.07
2018-06-14T01:36:12.858Z,7.53
2018-06-14T01:41:16.674Z,11.70
2018-06-14T01:46:20.885Z,8.03
2018-06-14T01:51:24.717Z,9.27
2018-06-14T01:56:28.729Z,8.13
2018-06-14T02:01:32.724Z,8.00
2018-06-14T02:06:36.527Z,7.90
2018-06-14T02:11:40.548Z,9.73
2018-06-14T02:16:44.332Z,8.10
2018-06-14T02:21:48.344Z,10.53
2018-06-14T02:26:52.197Z,8.33
2018-06-14T02:31:56.212Z,9.07
2018-06-14T02:37:00.050Z,8.00
2018-06-14T02:42:03.825Z,8.70
2018-06-14T02:47:07.598Z,8.30
2018-06-14T02:52:11.404Z,8.40
2018-06-14T02:57:15.203Z,8.67
2018-06-14T03:02:19.254Z,8.70
2018-06-14T03:07:28.433Z,10.63
2018-06-14T03:12:32.264Z,8.70
2018-06-14T03:17:36.068Z,10.27
2018-06-14T03:22:40.146Z,11.53
2018-06-14T03:27:43.958Z,10.10
2018-06-14T03:32:48.890Z,9.83
2018-06-14T03:37:52.714Z,9.57
2018-06-14T03:42:56.759Z,10.63
2018-06-14T03:48:00.813Z,9.73
2018-06-14T03:53:04.639Z,9.55
2018-06-14T03:58:08.810Z,9.23
2018-06-14T04:03:13.002Z,13.27
2018-06-14T04:08:16.792Z,9.03
2018-06-14T04:13:20.863Z,8.80
2018-06-14T04:18:24.654Z,9.23
2018-06-14T04:23:28.542Z,9.85
2018-06-14T04:28:32.302Z,9.83
2018-06-14T04:33:36.106Z,8.83
2018-06-14T04:38:39.978Z,13.10
2018-06-14T04:43:43.814Z,8.97
2018-06-14T04:48:47.597Z,9.60
2018-06-14T04:53:51.415Z,9.47
2018-06-14T04:58:55.446Z,8.87
2018-06-14T05:03:59.274Z,8.80
2018-06-14T05:09:03.501Z,8.73
2018-06-14T05:14:07.305Z,14.47
2018-06-14T05:19:11.173Z,8.23
2018-06-14T05:24:14.975Z,8.00
2018-06-14T05:29:18.794Z,8.30
2018-06-14T05:34:22.811Z,8.43
2018-06-14T05:39:26.682Z,7.70
2018-06-14T05:44:30.656Z,8.40
2018-06-14T05:49:34.455Z,7.23
2018-06-14T05:54:38.262Z,8.45
2018-06-14T05:59:42.046Z,7.63
2018-06-14T06:04:46.095Z,7.53
2018-06-14T06:09:49.881Z,6.53
2018-06-14T06:14:53.670Z,7.73
2018-06-14T06:19:57.466Z,6.00
2018-06-14T06:25:01.509Z,5.73
2018-06-14T06:30:05.738Z,5.60
2018-06-14T06:35:09.522Z,7.17
2018-06-14T06:40:13.310Z,6.87
2018-06-14T06:45:17.406Z,6.70
2018-06-14T06:50:21.209Z,7.23
2018-06-14T06:55:25.239Z,6.50
2018-06-14T07:00:29.267Z,7.40
2018-06-14T07:05:33.347Z,6.80
2018-06-14T07:10:37.146Z,8.13
2018-06-14T07:15:40.965Z,8.57
2018-06-14T07:20:45.007Z,11.27
2018-06-14T07:25:49.038Z,9.10
2018-06-14T07:30:53.115Z,7.77
2018-06-14T07:35:56.902Z,6.93
2018-06-14T07:41:00.706Z,6.63
2018-06-14T07:46:04.487Z,5.53
2018-06-14T07:51:08.630Z,6.93
2018-06-14T07:56:12.428Z,8.35
2018-06-14T08:01:16.464Z,6.10
2018-06-14T08:06:20.292Z,4.77
2018-06-14T08:11:24.099Z,6.43
2018-06-14T08:16:27.926Z,8.90
2018-06-14T08:21:31.718Z,6.23
2018-06-14T08:26:35.747Z,7.30
2018-06-14T08:31:39.542Z,5.93
2018-06-14T08:36:43.329Z,5.30
2018-06-14T08:41:47.130Z,4.90
2018-06-14T08:46:50.926Z,4.37
2018-06-14T08:51:54.971Z,7.30
2018-06-14T08:56:59.095Z,5.50
2018-06-14T09:02:02.894Z,5.10
2018-06-14T09:07:06.697Z,4.50
2018-06-14T09:12:10.489Z,4.43
2018-06-14T09:17:14.271Z,5.50
2018-06-14T09:22:18.155Z,4.23
2018-06-14T09:27:21.983Z,7.83
2018-06-14T09:32:26.030Z,5.27
2018-06-14T09:37:29.812Z,5.83
2018-06-14T09:42:33.617Z,3.87
2018-06-14T09:47:37.401Z,6.13
2018-06-14T09:52:41.221Z,4.27
2018-06-14T09:57:45.243Z,4.37
2018-06-14T10:02:49.039Z,5.30
2018-06-14T10:07:52.842Z,3.47
2018-06-14T10:12:56.635Z,4.80
2018-06-14T10:18:00.675Z,5.20
2018-06-14T10:23:04.716Z,3.83
2018-06-14T10:28:08.758Z,7.17
2018-06-14T10:33:13.135Z,4.63
2018-06-14T10:38:16.928Z,4.23
2018-06-14T10:43:20.970Z,4.70
2018-06-14T10:48:25.019Z,3.70
2018-06-14T10:53:28.806Z,3.83
2018-06-14T10:58:32.842Z,5.47
2018-06-14T11:03:36.654Z,4.00
2018-06-14T11:08:40.709Z,5.30
2018-06-14T11:13:44.728Z,3.37
2018-06-14T11:18:48.763Z,4.73
2018-06-14T11:23:52.810Z,2.47
2018-06-14T11:28:56.638Z,2.87
2018-06-14T11:34:00.684Z,5.57
2018-06-14T11:39:06.735Z,5.70
2018-06-14T11:44:10.786Z,4.53
2018-06-14T11:49:14.618Z,4.87
2018-06-14T11:54:18.882Z,2.20
2018-06-14T11:59:22.613Z,2.87
2018-06-14T12:04:26.414Z,2.87
2018-06-14T12:09:30.446Z,4.50
2018-06-14T12:14:34.494Z,2.83
2018-06-14T12:19:38.506Z,5.07
2018-06-14T12:24:42.559Z,3.33
2018-06-14T12:29:46.594Z,5.10
2018-06-14T12:34:50.421Z,3.87
2018-06-14T12:39:54.483Z,4.00
2018-06-14T12:44:58.580Z,6.80
2018-06-14T12:50:02.372Z,4.67
2018-06-14T12:55:06.472Z,3.77
2018-06-14T13:00:10.498Z,3.57
2018-06-14T13:05:14.294Z,4.27
2018-06-14T13:10:18.083Z,3.03
2018-06-14T13:15:22.099Z,3.40
2018-06-14T13:20:25.897Z,3.00
2018-06-14T13:25:30.007Z,2.73
2018-06-14T13:30:33.989Z,3.17
2018-06-14T13:35:37.781Z,3.20
2018-06-14T13:40:41.578Z,3.67
2018-06-14T13:45:45.599Z,2.43
2018-06-14T13:50:50.202Z,3.83
2018-06-14T13:55:54.273Z,2.57
2018-06-14T14:00:58.371Z,4.40
2018-06-14T14:06:02.356Z,2.23
2018-06-14T14:11:06.389Z,3.33
2018-06-14T14:16:10.175Z,3.40
2018-06-14T14:21:14.206Z,4.20
2018-06-14T14:26:18.005Z,2.20
2018-06-14T14:31:22.027Z,5.47
2018-06-14T14:36:26.068Z,2.27
2018-06-14T14:41:30.103Z,5.03
2018-06-14T14:46:34.042Z,3.23
2018-06-14T14:51:37.821Z,4.20
2018-06-14T14:56:41.619Z,2.70
2018-06-14T15:01:45.406Z,4.57
2018-06-14T15:06:49.236Z,2.27
2018-06-14T15:11:53.291Z,4.17
2018-06-14T15:16:57.331Z,3.93
2018-06-14T15:22:01.356Z,2.63
2018-06-14T15:27:05.180Z,3.43
2018-06-14T15:32:09.206Z,4.23
2018-06-14T15:37:13.073Z,3.00
2018-06-14T15:42:16.818Z,3.43
2018-06-14T15:47:20.847Z,4.27
2018-06-14T15:52:24.925Z,2.60
2018-06-14T15:57:28.979Z,2.70
2018-06-14T16:02:32.788Z,5.03
2018-06-14T16:07:36.570Z,4.20
2018-06-14T16:12:40.492Z,4.97
2018-06-14T16:17:44.293Z,5.07
2018-06-14T16:22:48.090Z,5.57
2018-06-14T16:27:51.918Z,5.73
2018-06-14T16:32:55.790Z,4.10
2018-06-14T16:37:59.851Z,5.73
2018-06-14T16:43:10.447Z,5.90
2018-06-14T16:48:14.242Z,5.87
2018-06-14T16:53:18.063Z,6.50
2018-06-14T16:58:22.102Z,6.23
2018-06-14T17:03:26.134Z,8.60
2018-06-14T17:08:30.180Z,8.80
2018-06-14T17:13:33.997Z,9.10
2018-06-14T17:18:37.766Z,9.40
2018-06-14T17:23:41.669Z,7.67
2018-06-14T17:28:45.659Z,7.50
2018-06-14T17:33:49.530Z,8.90
2018-06-14T17:38:53.326Z,9.13
2018-06-14T17:43:57.102Z,6.60
2018-06-14T17:49:01.164Z,7.17
2018-06-14T17:54:04.986Z,7.80
2018-06-14T17:59:15.117Z,7.77
2018-06-14T18:04:18.922Z,10.33
2018-06-14T18:09:22.813Z,7.77
2018-06-14T18:14:26.613Z,8.60
2018-06-14T18:19:30.423Z,9.77
2018-06-14T18:24:34.457Z,9.90
2018-06-14T18:29:38.280Z,8.97
2018-06-14T18:34:42.082Z,8.67
2018-06-14T18:39:45.890Z,8.38
2018-06-14T18:44:49.682Z,9.50
2018-06-14T18:49:53.478Z,9.33
2018-06-14T18:54:57.266Z,10.13
2018-06-14T19:00:01.308Z,9.57
2018-06-14T19:05:05.094Z,9.60
2018-06-14T19:10:08.902Z,9.10
2018-06-14T19:15:12.714Z,10.10
2018-06-14T19:20:17.475Z,9.07
2018-06-14T19:25:21.261Z,9.67
2018-06-14T19:30:25.079Z,9.67
2018-06-14T19:35:28.841Z,11.60
2018-06-14T19:40:32.635Z,11.40
2018-06-14T19:45:36.434Z,12.10
2018-06-14T19:50:40.338Z,11.67
2018-06-14T19:55:44.150Z,14.00
2018-06-14T20:00:48.339Z,14.10
2018-06-14T20:05:52.166Z,13.00
2018-06-14T20:10:56.053Z,10.77
2018-06-14T20:16:00.108Z,11.30
2018-06-14T20:21:04.161Z,11.13
2018-06-14T20:26:07.962Z,12.47
2018-06-14T20:31:12.007Z,9.87
2018-06-14T20:36:16.274Z,9.67
2018-06-14T20:41:20.338Z,10.37
2018-06-14T20:46:24.146Z,10.30
2018-06-14T20:51:27.954Z,9.80
2018-06-14T20:56:31.738Z,9.47
2018-06-14T21:01:35.538Z,9.40
2018-06-14T21:06:39.318Z,8.40
2018-06-14T21:11:43.398Z,8.60
2018-06-14T21:16:47.190Z,9.17
2018-06-14T21:21:51.273Z,9.00
2018-06-14T21:26:55.310Z,9.50
2018-06-14T21:31:59.098Z,9.07
2018-06-14T21:37:02.895Z,9.47
2018-06-14T21:42:07.150Z,9.00
2018-06-14T21:47:10.933Z,9.37
2018-06-14T21:52:14.971Z,11.77
2018-06-14T21:57:19.005Z,10.07
2018-06-14T22:02:22.794Z,10.23
2018-06-14T22:07:26.590Z,9.57
2018-06-14T22:12:30.382Z,9.55
2018-06-14T22:17:34.200Z,9.90
2018-06-14T22:22:37.977Z,9.00
2018-06-14T22:27:42.012Z,10.10
2018-06-14T22:32:45.885Z,9.70
2018-06-14T22:37:49.674Z,10.20
2018-06-14T22:42:53.542Z,11.57
2018-06-14T22:47:57.566Z,9.90
2018-06-14T22:53:04.062Z,10.67
2018-06-14T22:58:07.859Z,10.30
2018-06-14T23:03:11.669Z,10.17
2018-06-14T23:08:15.711Z,10.37
2018-06-14T23:13:19.782Z,9.73
2018-06-14T23:18:23.819Z,10.63
2018-06-14T23:23:27.695Z,9.95
2018-06-14T23:28:31.738Z,8.93
2018-06-14T23:33:35.542Z,8.97
2018-06-14T23:38:39.588Z,9.17
2018-06-14T23:43:43.398Z,9.70
2018-06-14T23:48:47.396Z,8.93
2018-06-14T23:53:51.149Z,10.70
2018-06-14T23:58:55.142Z,10.30
